createdAt,value
2019-04-20T00:01:19.724Z,5.53
2019-04-20T00:03:25.461Z,6.17
2019-04-20T00:05:27.516Z,4.30
2019-04-20T00:07:34.830Z,5.13
2019-04-20T00:09:39.749Z,5.33
2019-04-20T00:11:53.631Z,6.03
2019-04-20T00:13:59.176Z,5.80
2019-04-20T00:15:55.705Z,5.03
2019-04-20T00:18:04.370Z,5.53
2019-04-20T00:20:13.424Z,5.03
2019-04-20T00:22:20.072Z,6.60
2019-04-20T00:24:35.329Z,6.00
2019-04-20T00:27:11.785Z,7.67
2019-04-20T00:29:02.740Z,8.47
2019-04-20T00:31:09.636Z,7.03
2019-04-20T00:33:07.726Z,6.50
2019-04-20T00:35:02.210Z,6.43
2019-04-20T00:37:07.056Z,6.07
2019-04-20T00:39:14.592Z,5.73
2019-04-20T00:41:18.633Z,6.27
2019-04-20T00:43:30.114Z,5.80
2019-04-20T00:45:33.014Z,5.93
2019-04-20T00:47:45.483Z,5.40
2019-04-20T00:49:53.625Z,5.80
2019-04-20T00:52:13.115Z,6.70
2019-04-20T00:53:55.249Z,5.60
2019-04-20T00:55:57.258Z,6.50
2019-04-20T00:58:11.757Z,6.37
2019-04-20T01:00:25.806Z,5.80
2019-04-20T01:02:29.935Z,7.20
2019-04-20T01:04:45.965Z,6.53
2019-04-20T01:07:01.676Z,6.77
2019-04-20T01:09:16.287Z,6.80
2019-04-20T01:11:26.997Z,6.43
2019-04-20T01:13:28.041Z,5.70
2019-04-20T01:15:38.759Z,5.47
2019-04-20T01:17:40.985Z,6.20
2019-04-20T01:19:43.347Z,6.53
2019-04-20T01:21:54.833Z,6.40
2019-04-20T01:23:58.604Z,6.00
2019-04-20T01:26:05.482Z,5.43
2019-04-20T01:28:18.341Z,6.80
2019-04-20T01:30:21.951Z,5.60
2019-04-20T01:32:27.847Z,5.60
2019-04-20T01:34:36.798Z,6.20
2019-04-20T01:36:47.964Z,6.63
2019-04-20T01:38:47.573Z,6.50
2019-04-20T01:40:40.237Z,6.70
2019-04-20T01:42:44.596Z,6.70
2019-04-20T01:44:50.792Z,6.20
2019-04-20T01:46:59.319Z,7.23
2019-04-20T01:49:09.383Z,6.33
2019-04-20T01:51:11.796Z,5.90
2019-04-20T01:53:23.739Z,5.43
2019-04-20T01:55:38.579Z,6.10
2019-04-20T01:57:44.930Z,5.90
2019-04-20T01:59:51.714Z,5.90
2019-04-20T02:02:02.663Z,5.57
2019-04-20T02:04:22.456Z,6.53
2019-04-20T02:06:24.769Z,6.30
2019-04-20T02:08:29.471Z,5.60
2019-04-20T02:10:41.674Z,6.00
2019-04-20T02:12:40.872Z,7.07
2019-04-20T02:14:51.762Z,6.50
2019-04-20T02:17:01.653Z,6.40
2019-04-20T02:19:09.014Z,6.20
2019-04-20T02:21:19.641Z,5.50
2019-04-20T02:23:17.592Z,6.90
2019-04-20T02:25:14.207Z,6.30
2019-04-20T02:27:27.027Z,6.40
2019-04-20T02:29:47.434Z,6.43
2019-04-20T02:32:55.572Z,5.80
2019-04-20T02:34:16.485Z,6.07
2019-04-20T02:39:22.090Z,5.93
2019-04-20T02:41:11.784Z,5.80
2019-04-20T02:43:16.359Z,6.00
2019-04-20T02:45:33.386Z,6.57
2019-04-20T02:47:24.644Z,6.10
2019-04-20T02:49:44.861Z,6.17
2019-04-20T02:51:39.404Z,5.83
2019-04-20T02:53:40.812Z,6.60
2019-04-20T02:55:50.032Z,6.60
2019-04-20T02:57:54.858Z,6.30
2019-04-20T03:01:51.793Z,5.70
2019-04-20T03:03:43.675Z,5.43
2019-04-20T03:06:00.251Z,5.97
2019-04-20T03:08:08.740Z,6.53
2019-04-20T03:10:11.230Z,6.57
2019-04-20T03:12:23.879Z,5.60
2019-04-20T03:14:21.824Z,5.60
2019-04-20T03:16:31.868Z,5.60
2019-04-20T03:18:38.626Z,6.40
2019-04-20T03:20:49.723Z,6.77
2019-04-20T03:23:11.159Z,5.00
2019-04-20T03:24:59.770Z,5.77
2019-04-20T03:27:19.697Z,5.27
2019-04-20T03:29:56.725Z,5.90
2019-04-20T03:34:38.306Z,5.00
2019-04-20T03:36:25.299Z,5.90
2019-04-20T03:38:20.105Z,5.53
2019-04-20T03:40:24.378Z,5.33
2019-04-20T03:42:15.908Z,5.33
2019-04-20T03:44:25.622Z,5.60
2019-04-20T03:46:35.700Z,5.23
2019-04-20T03:48:48.352Z,5.47
2019-04-20T03:50:58.843Z,13.20
2019-04-20T03:53:09.971Z,6.40
2019-04-20T03:55:26.171Z,5.90
2019-04-20T03:57:45.891Z,5.50
2019-04-20T03:59:48.497Z,4.80
2019-04-20T04:02:22.520Z,5.67
2019-04-20T04:04:37.130Z,6.17
2019-04-20T04:06:30.677Z,5.87
2019-04-20T04:08:35.377Z,6.80
2019-04-20T04:10:52.443Z,5.97
2019-04-20T04:13:14.555Z,6.13
2019-04-20T04:15:19.004Z,5.63
2019-04-20T04:17:29.671Z,6.30
2019-04-20T04:19:33.651Z,5.90
2019-04-20T04:21:49.713Z,6.10
2019-04-20T04:23:54.311Z,6.30
2019-04-20T04:26:07.506Z,5.73
2019-04-20T04:28:09.766Z,7.30
2019-04-20T04:30:09.492Z,6.83
2019-04-20T04:32:33.092Z,7.67
2019-04-20T04:34:30.704Z,8.50
2019-04-20T04:36:26.222Z,6.77
2019-04-20T04:38:42.509Z,6.10
2019-04-20T04:40:52.483Z,6.83
2019-04-20T04:42:52.533Z,7.03
2019-04-20T04:44:46.742Z,6.10
2019-04-20T04:46:50.465Z,6.00
2019-04-20T04:48:51.144Z,7.30
2019-04-20T04:51:00.804Z,12.00
2019-04-20T04:53:09.056Z,6.50
2019-04-20T04:55:20.185Z,7.77
2019-04-20T04:57:13.679Z,6.20
2019-04-20T04:59:17.704Z,7.50
2019-04-20T05:01:25.901Z,8.37
2019-04-20T05:03:58.254Z,6.57
2019-04-20T05:06:06.460Z,4.90
2019-04-20T05:08:02.838Z,6.07
2019-04-20T05:09:59.157Z,5.17
2019-04-20T05:12:10.315Z,6.27
2019-04-20T05:14:15.043Z,5.73
2019-04-20T05:16:35.939Z,5.03
2019-04-20T05:18:44.912Z,6.00
2019-04-20T05:20:46.952Z,5.50
2019-04-20T05:22:59.094Z,7.87
2019-04-20T05:25:08.390Z,5.73
2019-04-20T05:27:33.523Z,5.23
2019-04-20T05:29:24.114Z,4.47
2019-04-20T05:31:32.111Z,4.30
2019-04-20T05:33:48.532Z,5.63
2019-04-20T05:35:58.916Z,5.27
2019-04-20T05:38:06.603Z,4.80
2019-04-20T05:40:10.793Z,4.63
2019-04-20T05:42:09.292Z,6.60
2019-04-20T05:44:26.028Z,5.37
2019-04-20T05:46:36.213Z,4.97
2019-04-20T05:48:46.271Z,5.10
2019-04-20T05:50:51.899Z,5.47
2019-04-20T05:52:57.775Z,6.30
2019-04-20T05:55:04.185Z,4.93
2019-04-20T05:57:17.463Z,5.50
2019-04-20T05:59:11.356Z,5.90
2019-04-20T06:01:20.468Z,9.30
2019-04-20T06:03:23.228Z,5.83
2019-04-20T06:05:27.515Z,5.53
2019-04-20T06:07:38.469Z,5.07
2019-04-20T06:09:39.718Z,5.13
2019-04-20T06:12:00.783Z,6.13
2019-04-20T06:14:03.500Z,6.10
2019-04-20T06:16:22.572Z,5.20
2019-04-20T06:18:44.106Z,4.93
2019-04-20T06:21:00.485Z,4.97
2019-04-20T06:23:10.079Z,4.20
2019-04-20T06:25:40.863Z,4.50
2019-04-20T06:27:38.155Z,5.40
2019-04-20T06:29:35.174Z,4.47
2019-04-20T06:31:42.161Z,4.50
2019-04-20T06:34:30.370Z,4.70
2019-04-20T06:36:32.134Z,4.40
2019-04-20T06:38:53.953Z,4.83
2019-04-20T06:40:57.858Z,5.30
2019-04-20T06:42:48.197Z,5.30
2019-04-20T06:44:46.354Z,4.83
2019-04-20T06:47:06.770Z,4.37
2019-04-20T06:49:11.420Z,4.40
2019-04-20T06:51:09.189Z,4.57
2019-04-20T06:53:32.540Z,4.73
2019-04-20T06:55:28.944Z,4.03
2019-04-20T06:57:34.646Z,3.90
2019-04-20T06:59:43.265Z,4.50
2019-04-20T07:01:56.785Z,3.60
2019-04-20T07:04:05.542Z,4.23
2019-04-20T07:06:19.493Z,4.60
2019-04-20T07:08:16.860Z,3.80
2019-04-20T07:10:19.749Z,4.33
2019-04-20T07:12:12.584Z,3.87
2019-04-20T07:14:09.488Z,3.37
2019-04-20T07:16:37.960Z,4.70
2019-04-20T07:19:00.742Z,3.80
2019-04-20T07:21:13.922Z,3.60
2019-04-20T07:23:23.880Z,3.70
2019-04-20T07:25:42.245Z,3.23
2019-04-20T07:27:49.696Z,3.23
2019-04-20T07:29:58.478Z,3.47
2019-04-20T07:31:57.671Z,3.33
2019-04-20T07:34:05.624Z,3.40
2019-04-20T07:36:20.189Z,3.20
2019-04-20T07:42:37.714Z,3.17
2019-04-20T07:44:41.374Z,2.70
2019-04-20T07:46:54.463Z,3.37
2019-04-20T07:48:42.293Z,3.00
2019-04-20T07:50:44.958Z,3.20
2019-04-20T07:52:46.353Z,2.90
2019-04-20T07:55:28.543Z,2.70
2019-04-20T07:57:10.006Z,3.30
2019-04-20T07:59:09.186Z,2.90
2019-04-20T08:01:38.912Z,3.30
2019-04-20T08:03:46.659Z,3.53
2019-04-20T08:05:47.981Z,3.30
2019-04-20T08:07:49.526Z,3.53
2019-04-20T08:09:54.398Z,3.20
2019-04-20T08:12:29.317Z,3.23
2019-04-20T08:14:24.230Z,3.53
2019-04-20T08:16:38.306Z,3.47
2019-04-20T08:18:45.735Z,3.47
2019-04-20T08:20:41.565Z,3.07
2019-04-20T08:22:47.451Z,3.10
2019-04-20T08:24:48.275Z,3.77
2019-04-20T08:26:48.581Z,6.00
2019-04-20T08:28:55.458Z,3.53
2019-04-20T08:31:31.244Z,3.17
2019-04-20T08:33:52.733Z,2.73
2019-04-20T08:35:54.666Z,3.13
2019-04-20T08:38:19.960Z,3.70
2019-04-20T08:40:05.338Z,2.77
2019-04-20T08:42:05.954Z,2.60
2019-04-20T08:46:15.037Z,4.40
2019-04-20T08:48:27.576Z,3.17
2019-04-20T08:50:29.512Z,2.83
2019-04-20T08:52:56.968Z,3.17
2019-04-20T08:54:35.548Z,3.00
2019-04-20T08:56:33.735Z,2.60
2019-04-20T08:58:31.617Z,2.83
2019-04-20T09:00:44.549Z,2.70
2019-04-20T09:02:48.916Z,2.80
2019-04-20T09:04:56.413Z,2.50
2019-04-20T09:07:04.115Z,3.10
2019-04-20T09:09:22.439Z,2.70
2019-04-20T09:11:19.631Z,2.67
2019-04-20T09:13:21.062Z,2.70
2019-04-20T09:17:45.157Z,2.53
2019-04-20T09:19:52.750Z,3.07
2019-04-20T09:22:09.827Z,3.20
2019-04-20T09:24:28.958Z,3.17
2019-04-20T09:26:26.930Z,3.20
2019-04-20T09:28:32.295Z,3.07
2019-04-20T09:30:41.771Z,2.80
2019-04-20T09:33:03.632Z,3.37
2019-04-20T09:35:09.547Z,3.50
2019-04-20T09:37:44.696Z,3.00
2019-04-20T09:40:11.319Z,3.67
2019-04-20T09:42:09.964Z,3.27
2019-04-20T09:44:20.082Z,3.63
2019-04-20T09:46:24.322Z,2.70
2019-04-20T09:48:36.132Z,3.70
2019-04-20T09:50:55.562Z,3.47
2019-04-20T09:53:00.480Z,3.43
2019-04-20T09:55:02.936Z,3.27
2019-04-20T09:57:25.318Z,3.00
2019-04-20T09:59:16.664Z,2.93
2019-04-20T10:01:16.630Z,2.90
2019-04-20T10:03:09.222Z,4.03
2019-04-20T10:05:33.488Z,3.50
2019-04-20T10:07:39.286Z,3.23
2019-04-20T10:09:45.618Z,3.40
2019-04-20T10:11:53.216Z,4.07
2019-04-20T10:13:58.493Z,3.50
2019-04-20T10:16:03.767Z,2.90
2019-04-20T10:18:07.974Z,3.33
2019-04-20T10:20:20.884Z,3.33
2019-04-20T10:22:18.421Z,3.10
2019-04-20T10:24:22.599Z,2.60
2019-04-20T10:26:27.010Z,2.90
2019-04-20T10:28:31.816Z,3.63
2019-04-20T10:30:36.710Z,3.17
2019-04-20T10:32:45.705Z,3.37
2019-04-20T10:34:46.587Z,3.17
2019-04-20T10:37:09.550Z,3.70
2019-04-20T10:39:18.485Z,3.17
2019-04-20T10:41:36.009Z,2.90
2019-04-20T10:43:28.323Z,3.50
2019-04-20T10:45:33.061Z,3.30
2019-04-20T10:47:43.375Z,2.60
2019-04-20T10:49:47.403Z,3.07
2019-04-20T10:51:51.715Z,2.90
2019-04-20T10:53:56.138Z,3.00
2019-04-20T10:56:01.269Z,2.70
2019-04-20T10:58:05.493Z,3.13
2019-04-20T11:00:10.599Z,2.97
2019-04-20T11:02:15.758Z,3.00
2019-04-20T11:04:20.882Z,2.97
2019-04-20T11:06:28.940Z,3.20
2019-04-20T11:08:32.970Z,3.40
2019-04-20T11:10:51.069Z,4.50
2019-04-20T11:12:44.254Z,3.10
2019-04-20T11:14:48.443Z,3.63
2019-04-20T11:16:52.468Z,4.30
2019-04-20T11:18:57.628Z,4.30
2019-04-20T11:21:01.744Z,4.47
2019-04-20T11:23:06.594Z,4.07
2019-04-20T11:25:10.620Z,3.53
2019-04-20T11:27:14.560Z,3.37
2019-04-20T11:29:20.009Z,3.27
2019-04-20T11:31:26.883Z,3.00
2019-04-20T11:33:30.047Z,3.00
2019-04-20T11:35:37.564Z,3.00
2019-04-20T11:37:39.889Z,2.93
2019-04-20T11:39:45.166Z,3.57
2019-04-20T11:41:49.748Z,3.23
2019-04-20T11:43:55.754Z,3.33
2019-04-20T11:46:00.546Z,3.37
2019-04-20T11:48:05.406Z,3.80
2019-04-20T11:50:11.899Z,3.30
2019-04-20T11:52:18.333Z,3.23
2019-04-20T11:54:22.079Z,3.30
2019-04-20T11:56:31.483Z,2.70
2019-04-20T11:58:33.166Z,2.85
2019-04-20T12:00:52.231Z,2.92
2019-04-20T12:03:15.901Z,2.58
2019-04-20T12:05:24.734Z,3.00
2019-04-20T12:07:20.108Z,3.15
2019-04-20T12:09:26.161Z,3.45
2019-04-20T12:11:40.636Z,2.98
2019-04-20T12:13:38.341Z,4.00
2019-04-20T12:15:45.423Z,2.72
2019-04-20T12:17:51.422Z,2.67
2019-04-20T12:19:56.028Z,2.55
2019-04-20T12:22:00.731Z,2.95
2019-04-20T12:24:06.633Z,3.40
2019-04-20T12:26:11.419Z,2.50
2019-04-20T12:28:16.059Z,3.15
2019-04-20T12:30:21.743Z,2.42
2019-04-20T12:32:29.525Z,2.52
2019-04-20T12:34:32.453Z,2.37
2019-04-20T12:36:37.361Z,3.10
2019-04-20T12:38:43.327Z,2.90
2019-04-20T12:40:48.521Z,2.70
2019-04-20T12:42:53.116Z,2.70
2019-04-20T12:44:57.811Z,2.70
2019-04-20T12:47:03.612Z,2.40
2019-04-20T12:49:09.435Z,2.40
2019-04-20T12:51:15.478Z,2.45
2019-04-20T12:53:20.450Z,2.40
2019-04-20T12:55:26.407Z,2.58
2019-04-20T12:57:32.282Z,3.02
2019-04-20T12:59:37.055Z,2.12
2019-04-20T13:01:41.603Z,2.50
2019-04-20T13:03:47.588Z,2.22
2019-04-20T13:05:52.313Z,2.60
2019-04-20T13:07:59.749Z,2.50
2019-04-20T13:10:05.713Z,2.90
2019-04-20T13:12:17.442Z,2.67
2019-04-20T13:15:16.153Z,2.80
2019-04-20T13:17:22.064Z,4.08
2019-04-20T13:19:27.066Z,2.87
2019-04-20T13:21:32.393Z,2.83
2019-04-20T13:23:37.293Z,2.75
2019-04-20T13:25:43.050Z,2.62
2019-04-20T13:27:49.125Z,3.05
2019-04-20T13:29:54.700Z,2.70
2019-04-20T13:32:02.018Z,2.30
2019-04-20T13:34:07.699Z,2.40
2019-04-20T13:36:12.538Z,2.90
2019-04-20T13:38:18.320Z,2.92
2019-04-20T13:40:23.832Z,2.95
2019-04-20T13:42:31.125Z,2.70
2019-04-20T13:44:34.940Z,3.22
2019-04-20T13:46:40.843Z,2.90
2019-04-20T13:48:47.150Z,3.30
2019-04-20T13:50:51.893Z,3.30
2019-04-20T13:52:56.601Z,2.70
2019-04-20T13:55:02.293Z,3.65
2019-04-20T13:57:08.040Z,3.12
2019-04-20T13:59:27.870Z,3.15
2019-04-20T14:01:39.008Z,2.87
2019-04-20T14:03:44.919Z,3.10
2019-04-20T14:05:50.844Z,3.40
2019-04-20T14:07:59.593Z,4.33
2019-04-20T14:10:05.833Z,3.27
2019-04-20T14:12:22.007Z,3.83
2019-04-20T14:14:17.221Z,4.00
2019-04-20T14:16:21.275Z,2.77
2019-04-20T14:18:25.298Z,2.90
2019-04-20T14:20:29.868Z,2.77
2019-04-20T14:22:33.812Z,2.27
2019-04-20T14:24:39.012Z,2.70
2019-04-20T14:26:44.575Z,2.80
2019-04-20T14:28:49.132Z,2.67
2019-04-20T14:30:54.149Z,2.40
2019-04-20T14:32:58.794Z,2.40
2019-04-20T14:35:03.156Z,2.23
2019-04-20T14:37:07.270Z,2.50
2019-04-20T14:39:12.045Z,2.40
2019-04-20T14:41:16.179Z,2.20
2019-04-20T14:43:21.150Z,2.35
2019-04-20T14:45:26.873Z,2.17
2019-04-20T14:47:31.885Z,2.50
2019-04-20T14:49:36.773Z,2.02
2019-04-20T14:51:41.658Z,2.42
2019-04-20T14:53:47.448Z,2.10
2019-04-20T14:55:53.398Z,2.30
2019-04-20T14:58:01.841Z,2.22
2019-04-20T15:00:23.579Z,2.20
2019-04-20T15:02:30.406Z,2.45
2019-04-20T15:04:36.931Z,2.47
2019-04-20T15:06:42.484Z,2.15
2019-04-20T15:08:48.342Z,2.33
2019-04-20T15:10:53.019Z,2.55
2019-04-20T15:13:02.420Z,3.77
2019-04-20T15:15:03.227Z,9.53
2019-04-20T15:17:10.828Z,7.85
2019-04-20T15:19:41.403Z,2.75
2019-04-20T15:21:47.469Z,3.23
2019-04-20T15:23:51.412Z,3.90
2019-04-20T15:25:55.421Z,2.50
2019-04-20T15:28:00.483Z,2.63
2019-04-20T15:30:06.569Z,3.47
2019-04-20T15:32:10.575Z,3.27
2019-04-20T15:34:15.021Z,3.47
2019-04-20T15:36:20.152Z,3.53
2019-04-20T15:38:24.984Z,4.10
2019-04-20T15:40:29.059Z,3.80
2019-04-20T15:42:33.230Z,3.20
2019-04-20T15:44:37.557Z,3.47
2019-04-20T15:46:41.698Z,3.40
2019-04-20T15:48:46.134Z,3.33
2019-04-20T15:50:50.335Z,3.17
2019-04-20T15:52:55.283Z,3.03
2019-04-20T15:55:01.780Z,3.97
2019-04-20T15:57:13.634Z,3.30
2019-04-20T15:59:12.525Z,3.40
2019-04-20T16:01:18.519Z,3.67
2019-04-20T16:03:29.646Z,3.80
2019-04-20T16:05:40.986Z,2.97
2019-04-20T16:07:51.101Z,3.50
2019-04-20T16:09:51.654Z,4.37
2019-04-20T16:11:57.050Z,4.40
2019-04-20T16:14:03.017Z,3.50
2019-04-20T16:16:07.831Z,4.20
2019-04-20T16:18:12.513Z,4.17
2019-04-20T16:20:20.105Z,3.70
2019-04-20T16:22:23.866Z,3.67
2019-04-20T16:24:32.894Z,4.67
2019-04-20T16:26:55.881Z,4.97
2019-04-20T16:28:59.852Z,5.10
2019-04-20T16:31:07.001Z,6.57
2019-04-20T16:33:10.446Z,5.80
2019-04-20T16:35:34.226Z,8.10
2019-04-20T16:37:38.500Z,9.40
2019-04-20T16:39:42.925Z,10.70
2019-04-20T16:41:46.979Z,9.43
2019-04-20T16:43:51.652Z,8.23
2019-04-20T16:45:57.091Z,8.23
2019-04-20T16:48:02.182Z,6.53
2019-04-20T16:50:08.746Z,6.33
2019-04-20T16:52:12.837Z,8.90
2019-04-20T16:54:17.689Z,7.77
2019-04-20T16:56:22.326Z,8.27
2019-04-20T16:58:28.012Z,7.57
2019-04-20T17:00:33.650Z,8.50
2019-04-20T17:02:44.587Z,7.50
2019-04-20T17:04:51.520Z,6.93
2019-04-20T17:07:20.665Z,8.87
2019-04-20T17:09:26.109Z,9.77
2019-04-20T17:11:30.201Z,9.47
2019-04-20T17:13:40.484Z,7.23
2019-04-20T17:15:39.729Z,7.10
2019-04-20T17:17:46.175Z,8.97
2019-04-20T17:19:49.503Z,8.50
2019-04-20T17:21:55.840Z,8.23
2019-04-20T17:23:59.464Z,9.80
2019-04-20T17:26:06.094Z,14.20
2019-04-20T17:28:26.910Z,11.00
2019-04-20T17:30:52.979Z,10.27
2019-04-20T17:33:02.345Z,10.60
2019-04-20T17:35:17.810Z,9.93
2019-04-20T17:37:12.872Z,9.67
2019-04-20T17:39:30.436Z,9.33
2019-04-20T17:41:44.475Z,8.43
2019-04-20T17:43:37.139Z,8.13
2019-04-20T17:45:47.528Z,8.33
2019-04-20T17:47:57.822Z,8.83
2019-04-20T17:50:06.911Z,11.70
2019-04-20T17:52:22.242Z,15.33
2019-04-20T17:54:19.862Z,16.30
2019-04-20T17:56:24.527Z,23.20
2019-04-20T17:58:32.645Z,20.50
2019-04-20T18:00:56.042Z,18.40
2019-04-20T18:03:14.646Z,12.50
2019-04-20T18:05:26.905Z,11.07
2019-04-20T18:07:35.407Z,11.33
2019-04-20T18:09:45.887Z,10.43
2019-04-20T18:11:32.751Z,9.00
2019-04-20T18:13:34.163Z,8.53
2019-04-20T18:15:52.638Z,9.13
2019-04-20T18:18:25.878Z,11.97
2019-04-20T18:20:23.049Z,14.97
2019-04-20T18:22:27.819Z,16.33
2019-04-20T18:24:58.291Z,16.90
2019-04-20T18:26:52.015Z,15.90
2019-04-20T18:29:03.609Z,16.03
2019-04-20T18:31:09.094Z,16.13
2019-04-20T18:33:17.940Z,16.70
2019-04-20T18:35:22.589Z,17.23
2019-04-20T18:37:27.437Z,17.30
2019-04-20T18:39:40.010Z,18.40
2019-04-20T18:41:46.660Z,20.70
2019-04-20T18:43:48.827Z,24.97
2019-04-20T18:46:08.053Z,29.13
2019-04-20T18:48:14.717Z,32.67
2019-04-20T18:50:10.508Z,29.90
2019-04-20T18:52:06.680Z,36.00
2019-04-20T18:54:17.215Z,34.10
2019-04-20T18:56:23.906Z,32.47
2019-04-20T18:58:22.938Z,26.93
2019-04-20T19:00:32.504Z,22.50
2019-04-20T19:02:38.053Z,20.77
2019-04-20T19:04:39.734Z,17.87
2019-04-20T19:06:43.841Z,18.17
2019-04-20T19:08:51.504Z,17.60
2019-04-20T19:11:01.541Z,17.60
2019-04-20T19:13:08.441Z,19.47
2019-04-20T19:15:48.141Z,19.00
2019-04-20T19:18:15.679Z,24.27
2019-04-20T19:20:18.327Z,25.60
2019-04-20T19:22:22.339Z,29.57
2019-04-20T19:24:29.289Z,27.87
2019-04-20T19:26:32.256Z,30.53
2019-04-20T19:28:44.233Z,31.83
2019-04-20T19:30:49.952Z,30.40
2019-04-20T19:33:05.026Z,32.20
2019-04-20T19:35:01.310Z,32.30
2019-04-20T19:37:13.705Z,30.60
2019-04-20T19:39:21.397Z,32.60
2019-04-20T19:41:27.351Z,33.30
2019-04-20T19:43:27.797Z,34.60
2019-04-20T19:45:48.710Z,29.90
2019-04-20T19:47:47.673Z,28.00
2019-04-20T19:49:44.964Z,29.50
2019-04-20T19:52:16.029Z,25.47
2019-04-20T19:54:16.608Z,23.70
2019-04-20T19:56:05.241Z,23.40
2019-04-20T19:58:14.040Z,27.83
2019-04-20T20:00:07.657Z,27.17
2019-04-20T20:02:12.158Z,26.00
2019-04-20T20:04:17.457Z,22.43
2019-04-20T20:06:29.347Z,22.47
2019-04-20T20:08:29.923Z,17.33
2019-04-20T20:10:37.724Z,17.97
2019-04-20T20:12:39.809Z,16.47
2019-04-20T20:14:47.798Z,16.03
2019-04-20T20:17:12.888Z,14.90
2019-04-20T20:19:06.001Z,15.40
2019-04-20T20:21:19.318Z,14.93
2019-04-20T20:23:07.926Z,14.00
2019-04-20T20:25:12.778Z,13.97
2019-04-20T20:27:25.637Z,13.20
2019-04-20T20:29:30.502Z,11.77
2019-04-20T20:31:46.977Z,11.83
2019-04-20T20:33:49.667Z,12.63
2019-04-20T20:35:48.128Z,14.03
2019-04-20T20:37:53.461Z,15.93
2019-04-20T20:39:57.017Z,16.90
2019-04-20T20:42:10.878Z,16.57
2019-04-20T20:44:08.750Z,20.37
2019-04-20T20:46:19.804Z,23.60
2019-04-20T20:48:34.050Z,23.77
2019-04-20T20:50:42.760Z,20.00
2019-04-20T20:52:44.057Z,20.47
2019-04-20T20:54:47.777Z,19.47
2019-04-20T20:56:48.752Z,21.87
2019-04-20T20:58:52.035Z,22.20
2019-04-20T21:00:57.546Z,25.60
2019-04-20T21:03:00.834Z,27.17
2019-04-20T21:05:00.121Z,26.77
2019-04-20T21:07:04.596Z,22.37
2019-04-20T21:09:10.402Z,20.77
2019-04-20T21:11:20.435Z,19.50
2019-04-20T21:13:21.384Z,17.57
2019-04-20T21:15:27.935Z,18.50
2019-04-20T21:17:47.504Z,20.67
2019-04-20T21:19:53.349Z,22.20
2019-04-20T21:21:50.469Z,22.63
2019-04-20T21:23:56.724Z,19.70
2019-04-20T21:26:12.740Z,17.47
2019-04-20T21:28:13.383Z,17.73
2019-04-20T21:30:29.140Z,15.63
2019-04-20T21:32:26.573Z,16.87
2019-04-20T21:34:31.202Z,16.83
2019-04-20T21:36:36.763Z,16.70
2019-04-20T21:38:42.918Z,15.60
2019-04-20T21:40:49.566Z,15.80
2019-04-20T21:42:58.784Z,16.30
2019-04-20T21:45:09.663Z,15.33
2019-04-20T21:47:05.155Z,15.80
2019-04-20T21:49:23.824Z,15.00
2019-04-20T21:51:29.731Z,16.43
2019-04-20T21:53:26.652Z,15.80
2019-04-20T21:55:27.846Z,14.87
2019-04-20T21:57:39.057Z,16.30
2019-04-20T21:59:43.236Z,15.80
2019-04-20T22:01:55.131Z,16.20
2019-04-20T22:03:50.263Z,16.40
2019-04-20T22:06:04.759Z,18.17
2019-04-20T22:08:11.355Z,17.17
2019-04-20T22:10:21.372Z,18.60
2019-04-20T22:12:20.461Z,17.83
2019-04-20T22:14:27.931Z,20.20
2019-04-20T22:16:36.567Z,19.87
2019-04-20T22:18:48.379Z,19.40
2019-04-20T22:20:52.220Z,19.23
2019-04-20T22:22:59.462Z,21.60
2019-04-20T22:25:08.261Z,22.07
2019-04-20T22:27:06.440Z,21.53
2019-04-20T22:29:04.177Z,19.83
2019-04-20T22:31:09.467Z,19.00
2019-04-20T22:33:36.344Z,18.00
2019-04-20T22:35:47.911Z,20.93
2019-04-20T22:37:52.041Z,20.57
2019-04-20T22:39:56.639Z,20.00
2019-04-20T22:42:07.119Z,18.80
2019-04-20T22:44:14.541Z,22.53
2019-04-20T22:46:13.058Z,19.50
2019-04-20T22:48:19.219Z,20.97
2019-04-20T22:50:45.108Z,21.67
2019-04-20T22:52:47.847Z,21.63
2019-04-20T22:54:54.834Z,21.40
2019-04-20T22:56:55.130Z,20.60
2019-04-20T22:58:57.564Z,21.70
2019-04-20T23:01:01.239Z,21.53
2019-04-20T23:03:00.821Z,21.70
2019-04-20T23:05:06.791Z,23.30
2019-04-20T23:07:12.656Z,23.07
2019-04-20T23:09:17.505Z,22.10
2019-04-20T23:11:26.993Z,23.33
2019-04-20T23:13:35.119Z,23.70
2019-04-20T23:15:34.364Z,23.87
2019-04-20T23:17:43.084Z,23.80
2019-04-20T23:19:49.507Z,21.90
2019-04-20T23:21:57.264Z,22.93
2019-04-20T23:24:01.698Z,24.00
2019-04-20T23:26:01.356Z,23.30
2019-04-20T23:28:10.109Z,24.93
2019-04-20T23:30:21.294Z,25.30
2019-04-20T23:32:19.580Z,24.60
2019-04-20T23:34:28.455Z,23.80
2019-04-20T23:36:36.963Z,23.57
2019-04-20T23:38:35.296Z,23.70
2019-04-20T23:40:39.694Z,22.93
2019-04-20T23:42:49.518Z,21.77
2019-04-20T23:45:16.858Z,23.63
2019-04-20T23:47:30.078Z,26.00
2019-04-20T23:49:54.248Z,25.63
2019-04-20T23:52:08.656Z,25.60
2019-04-20T23:53:55.530Z,24.80
2019-04-20T23:55:54.023Z,24.13
2019-04-20T23:58:03.277Z,22.70
